sensor_id;sensor_type;location;lat;lon;timestamp;temperature;humidity
9824;DHT22;4951;50.778;7.196;2022-11-15T00:02:20;8.90;1.00
9824;DHT22;4951;50.778;7.196;2022-11-15T00:05:06;8.90;1.00
9824;DHT22;4951;50.778;7.196;2022-11-15T00:07:52;8.90;1.00
9824;DHT22;4951;50.778;7.196;2022-11-15T00:10:39;8.90;1.00
9824;DHT22;4951;50.778;7.196;2022-11-15T00:13:25;8.90;1.00
9824;DHT22;4951;50.778;7.196;2022-11-15T00:16:11;8.90;1.00
9824;DHT22;4951;50.778;7.196;2022-11-15T00:18:57;8.80;1.00
9824;DHT22;4951;50.778;7.196;2022-11-15T00:21:43;8.80;1.00
9824;DHT22;4951;50.778;7.196;2022-11-15T00:24:28;8.70;1.00
9824;DHT22;4951;50.778;7.196;2022-11-15T00:27:16;8.70;1.00
9824;DHT22;4951;50.778;7.196;2022-11-15T00:30:01;8.70;1.00
9824;DHT22;4951;50.778;7.196;2022-11-15T00:32:48;8.60;1.00
9824;DHT22;4951;50.778;7.196;2022-11-15T00:35:34;8.70;1.00
9824;DHT22;4951;50.778;7.196;2022-11-15T00:38:20;8.70;1.00
9824;DHT22;4951;50.778;7.196;2022-11-15T00:41:06;8.80;1.00
9824;DHT22;4951;50.778;7.196;2022-11-15T00:43:54;8.80;1.00
9824;DHT22;4951;50.778;7.196;2022-11-15T00:46:40;8.90;1.00
9824;DHT22;4951;50.778;7.196;2022-11-15T00:49:26;9.00;1.00
9824;DHT22;4951;50.778;7.196;2022-11-15T00:52:11;9.00;1.00
9824;DHT22;4951;50.778;7.196;2022-11-15T00:54:57;9.00;1.00
9824;DHT22;4951;50.778;7.196;2022-11-15T00:57:43;9.00;1.00
9824;DHT22;4951;50.778;7.196;2022-11-15T01:00:30;9.10;1.00
9824;DHT22;4951;50.778;7.196;2022-11-15T01:03:16;9.20;1.00
9824;DHT22;4951;50.778;7.196;2022-11-15T01:06:02;9.30;1.00
9824;DHT22;4951;50.778;7.196;2022-11-15T01:08:49;9.40;1.00
9824;DHT22;4951;50.778;7.196;2022-11-15T01:11:35;9.50;1.00
9824;DHT22;4951;50.778;7.196;2022-11-15T01:14:21;9.60;1.00
9824;DHT22;4951;50.778;7.196;2022-11-15T01:17:09;9.70;1.00
9824;DHT22;4951;50.778;7.196;2022-11-15T01:19:55;9.80;1.00
9824;DHT22;4951;50.778;7.196;2022-11-15T01:22:41;10.00;1.00
9824;DHT22;4951;50.778;7.196;2022-11-15T01:25:26;10.10;1.00
9824;DHT22;4951;50.778;7.196;2022-11-15T01:28:12;10.20;1.00
9824;DHT22;4951;50.778;7.196;2022-11-15T01:30:58;10.30;1.00
9824;DHT22;4951;50.778;7.196;2022-11-15T01:33:47;10.40;1.00
9824;DHT22;4951;50.778;7.196;2022-11-15T01:36:33;10.40;1.00
9824;DHT22;4951;50.778;7.196;2022-11-15T01:39:19;10.50;1.00
9824;DHT22;4951;50.778;7.196;2022-11-15T01:42:04;10.60;1.00
9824;DHT22;4951;50.778;7.196;2022-11-15T01:44:51;10.70;1.00
9824;DHT22;4951;50.778;7.196;2022-11-15T01:47:41;10.70;1.00
9824;DHT22;4951;50.778;7.196;2022-11-15T01:50:32;10.70;1.00
9824;DHT22;4951;50.778;7.196;2022-11-15T01:53:19;10.70;1.00
9824;DHT22;4951;50.778;7.196;2022-11-15T01:56:09;10.70;1.00
9824;DHT22;4951;50.778;7.196;2022-11-15T01:58:57;10.70;1.00
9824;DHT22;4951;50.778;7.196;2022-11-15T02:01:44;10.70;1.00
9824;DHT22;4951;50.778;7.196;2022-11-15T02:04:31;10.70;1.00
9824;DHT22;4951;50.778;7.196;2022-11-15T02:07:21;10.70;1.00
9824;DHT22;4951;50.778;7.196;2022-11-15T02:10:09;10.70;1.00
9824;DHT22;4951;50.778;7.196;2022-11-15T02:12:57;10.70;1.00
9824;DHT22;4951;50.778;7.196;2022-11-15T02:15:55;10.70;1.00
9824;DHT22;4951;50.778;7.196;2022-11-15T02:18:49;10.70;1.00
9824;DHT22;4951;50.778;7.196;2022-11-15T02:21:41;10.70;1.00
9824;DHT22;4951;50.778;7.196;2022-11-15T02:24:50;10.70;1.00
9824;DHT22;4951;50.778;7.196;2022-11-15T02:31:03;10.60;1.00
9824;DHT22;4951;50.778;7.196;2022-11-15T02:33:54;10.70;1.00
9824;DHT22;4951;50.778;7.196;2022-11-15T02:36:47;10.70;1.00
9824;DHT22;4951;50.778;7.196;2022-11-15T02:39:44;10.60;1.00
9824;DHT22;4951;50.778;7.196;2022-11-15T02:42:33;10.60;1.00
9824;DHT22;4951;50.778;7.196;2022-11-15T02:45:43;10.60;1.00
9824;DHT22;4951;50.778;7.196;2022-11-15T02:48:32;10.70;1.00
9824;DHT22;4951;50.778;7.196;2022-11-15T02:51:19;10.70;1.00
9824;DHT22;4951;50.778;7.196;2022-11-15T02:54:04;10.70;1.00
9824;DHT22;4951;50.778;7.196;2022-11-15T02:56:52;10.80;1.00
9824;DHT22;4951;50.778;7.196;2022-11-15T02:59:59;10.90;1.00
9824;DHT22;4951;50.778;7.196;2022-11-15T03:03:01;11.00;1.00
9824;DHT22;4951;50.778;7.196;2022-11-15T03:05:56;11.10;1.00
9824;DHT22;4951;50.778;7.196;2022-11-15T03:08:54;11.20;1.00
9824;DHT22;4951;50.778;7.196;2022-11-15T03:11:46;11.40;1.00
9824;DHT22;4951;50.778;7.196;2022-11-15T03:14:34;11.40;1.00
9824;DHT22;4951;50.778;7.196;2022-11-15T03:17:25;11.50;1.00
9824;DHT22;4951;50.778;7.196;2022-11-15T03:20:14;11.50;1.00
9824;DHT22;4951;50.778;7.196;2022-11-15T03:23:05;11.50;1.00
9824;DHT22;4951;50.778;7.196;2022-11-15T03:25:52;11.50;1.00
9824;DHT22;4951;50.778;7.196;2022-11-15T03:28:41;11.60;1.00
9824;DHT22;4951;50.778;7.196;2022-11-15T03:31:34;11.60;1.00
9824;DHT22;4951;50.778;7.196;2022-11-15T03:34:37;11.60;1.00
9824;DHT22;4951;50.778;7.196;2022-11-15T03:37:29;11.70;1.00
9824;DHT22;4951;50.778;7.196;2022-11-15T03:40:17;11.80;1.00
9824;DHT22;4951;50.778;7.196;2022-11-15T03:43:15;11.90;1.00
9824;DHT22;4951;50.778;7.196;2022-11-15T03:46:07;11.90;1.00
9824;DHT22;4951;50.778;7.196;2022-11-15T03:49:04;12.00;1.00
9824;DHT22;4951;50.778;7.196;2022-11-15T03:51:52;12.00;1.00
9824;DHT22;4951;50.778;7.196;2022-11-15T03:54:47;12.00;1.00
9824;DHT22;4951;50.778;7.196;2022-11-15T03:57:35;12.10;1.00
9824;DHT22;4951;50.778;7.196;2022-11-15T04:00:21;12.10;1.00
9824;DHT22;4951;50.778;7.196;2022-11-15T04:03:07;12.10;1.00
9824;DHT22;4951;50.778;7.196;2022-11-15T04:05:53;12.10;1.00
9824;DHT22;4951;50.778;7.196;2022-11-15T04:08:39;12.10;1.00
9824;DHT22;4951;50.778;7.196;2022-11-15T04:11:25;12.10;1.00
9824;DHT22;4951;50.778;7.196;2022-11-15T04:14:13;12.20;1.00
9824;DHT22;4951;50.778;7.196;2022-11-15T04:16:59;12.20;1.00
9824;DHT22;4951;50.778;7.196;2022-11-15T04:19:47;12.20;1.00
9824;DHT22;4951;50.778;7.196;2022-11-15T04:22:52;12.10;1.00
9824;DHT22;4951;50.778;7.196;2022-11-15T04:25:59;12.00;1.00
9824;DHT22;4951;50.778;7.196;2022-11-15T04:28:45;11.80;1.00
9824;DHT22;4951;50.778;7.196;2022-11-15T04:31:46;11.70;1.00
9824;DHT22;4951;50.778;7.196;2022-11-15T04:34:32;11.50;1.00
9824;DHT22;4951;50.778;7.196;2022-11-15T04:37:18;11.50;1.00
9824;DHT22;4951;50.778;7.196;2022-11-15T04:40:05;11.40;1.00
9824;DHT22;4951;50.778;7.196;2022-11-15T04:42:51;11.30;1.00
9824;DHT22;4951;50.778;7.196;2022-11-15T04:45:37;11.20;1.00
9824;DHT22;4951;50.778;7.196;2022-11-15T04:48:24;11.10;1.00
9824;DHT22;4951;50.778;7.196;2022-11-15T04:51:10;11.10;1.00
9824;DHT22;4951;50.778;7.196;2022-11-15T04:53:56;11.00;1.00
9824;DHT22;4951;50.778;7.196;2022-11-15T04:56:42;11.10;1.00
9824;DHT22;4951;50.778;7.196;2022-11-15T04:59:28;11.10;1.00
9824;DHT22;4951;50.778;7.196;2022-11-15T05:02:14;11.10;1.00
9824;DHT22;4951;50.778;7.196;2022-11-15T05:05:02;11.20;1.00
9824;DHT22;4951;50.778;7.196;2022-11-15T05:07:47;11.30;1.00
9824;DHT22;4951;50.778;7.196;2022-11-15T05:10:33;11.30;1.00
9824;DHT22;4951;50.778;7.196;2022-11-15T05:13:19;11.40;1.00
9824;DHT22;4951;50.778;7.196;2022-11-15T05:16:04;11.40;1.00
9824;DHT22;4951;50.778;7.196;2022-11-15T05:18:51;11.50;1.00
9824;DHT22;4951;50.778;7.196;2022-11-15T05:21:38;11.50;1.00
9824;DHT22;4951;50.778;7.196;2022-11-15T05:24:24;11.50;1.00
9824;DHT22;4951;50.778;7.196;2022-11-15T05:27:09;11.50;1.00
9824;DHT22;4951;50.778;7.196;2022-11-15T05:29:55;11.50;1.00
9824;DHT22;4951;50.778;7.196;2022-11-15T05:32:42;11.50;1.00
9824;DHT22;4951;50.778;7.196;2022-11-15T05:35:30;11.40;1.00
9824;DHT22;4951;50.778;7.196;2022-11-15T05:38:21;11.30;1.00
9824;DHT22;4951;50.778;7.196;2022-11-15T05:41:06;11.20;1.00
9824;DHT22;4951;50.778;7.196;2022-11-15T05:43:53;11.10;1.00
9824;DHT22;4951;50.778;7.196;2022-11-15T05:46:39;11.00;1.00
9824;DHT22;4951;50.778;7.196;2022-11-15T05:49:28;10.90;1.00
9824;DHT22;4951;50.778;7.196;2022-11-15T05:52:17;10.80;1.00
9824;DHT22;4951;50.778;7.196;2022-11-15T05:55:12;10.70;1.00
9824;DHT22;4951;50.778;7.196;2022-11-15T05:58:00;10.70;1.00
9824;DHT22;4951;50.778;7.196;2022-11-15T06:00:49;10.60;1.00
9824;DHT22;4951;50.778;7.196;2022-11-15T06:03:35;10.50;1.00
9824;DHT22;4951;50.778;7.196;2022-11-15T06:06:20;10.50;1.00
9824;DHT22;4951;50.778;7.196;2022-11-15T06:09:07;10.40;1.00
9824;DHT22;4951;50.778;7.196;2022-11-15T06:11:54;10.40;1.00
9824;DHT22;4951;50.778;7.196;2022-11-15T06:14:40;10.30;1.00
9824;DHT22;4951;50.778;7.196;2022-11-15T06:17:26;10.20;1.00
9824;DHT22;4951;50.778;7.196;2022-11-15T06:20:12;10.10;1.00
9824;DHT22;4951;50.778;7.196;2022-11-15T06:22:57;10.10;1.00
9824;DHT22;4951;50.778;7.196;2022-11-15T06:25:43;10.00;1.00
9824;DHT22;4951;50.778;7.196;2022-11-15T06:28:31;10.00;1.00
9824;DHT22;4951;50.778;7.196;2022-11-15T06:31:17;10.00;1.00
9824;DHT22;4951;50.778;7.196;2022-11-15T06:34:03;10.00;1.00
9824;DHT22;4951;50.778;7.196;2022-11-15T06:36:51;9.90;1.00
9824;DHT22;4951;50.778;7.196;2022-11-15T06:39:36;9.90;1.00
9824;DHT22;4951;50.778;7.196;2022-11-15T06:42:22;9.80;1.00
9824;DHT22;4951;50.778;7.196;2022-11-15T06:45:09;9.80;1.00
9824;DHT22;4951;50.778;7.196;2022-11-15T06:47:55;9.70;1.00
9824;DHT22;4951;50.778;7.196;2022-11-15T06:50:41;9.70;1.00
9824;DHT22;4951;50.778;7.196;2022-11-15T06:53:27;9.70;1.00
9824;DHT22;4951;50.778;7.196;2022-11-15T06:56:15;9.60;1.00
9824;DHT22;4951;50.778;7.196;2022-11-15T06:59:01;9.60;1.00
9824;DHT22;4951;50.778;7.196;2022-11-15T07:01:49;9.60;1.00
9824;DHT22;4951;50.778;7.196;2022-11-15T07:04:35;9.60;1.00
9824;DHT22;4951;50.778;7.196;2022-11-15T07:07:21;9.60;1.00
9824;DHT22;4951;50.778;7.196;2022-11-15T07:10:08;9.50;1.00
9824;DHT22;4951;50.778;7.196;2022-11-15T07:12:55;9.50;1.00
9824;DHT22;4951;50.778;7.196;2022-11-15T07:15:41;9.40;1.00
9824;DHT22;4951;50.778;7.196;2022-11-15T07:18:28;9.40;1.00
9824;DHT22;4951;50.778;7.196;2022-11-15T07:21:14;9.40;1.00
9824;DHT22;4951;50.778;7.196;2022-11-15T07:23:59;9.30;1.00
9824;DHT22;4951;50.778;7.196;2022-11-15T07:26:47;9.30;1.00
9824;DHT22;4951;50.778;7.196;2022-11-15T07:29:33;9.30;1.00
9824;DHT22;4951;50.778;7.196;2022-11-15T07:32:18;9.30;1.00
9824;DHT22;4951;50.778;7.196;2022-11-15T07:35:06;9.30;1.00
9824;DHT22;4951;50.778;7.196;2022-11-15T07:37:56;9.30;1.00
9824;DHT22;4951;50.778;7.196;2022-11-15T07:40:41;9.30;1.00
9824;DHT22;4951;50.778;7.196;2022-11-15T07:43:27;9.30;1.00
9824;DHT22;4951;50.778;7.196;2022-11-15T07:46:13;9.40;1.00
9824;DHT22;4951;50.778;7.196;2022-11-15T07:48:59;9.40;1.00
9824;DHT22;4951;50.778;7.196;2022-11-15T07:51:48;9.50;1.00
9824;DHT22;4951;50.778;7.196;2022-11-15T07:54:34;9.50;1.00
9824;DHT22;4951;50.778;7.196;2022-11-15T07:57:20;9.60;1.00
9824;DHT22;4951;50.778;7.196;2022-11-15T08:00:09;9.60;1.00
9824;DHT22;4951;50.778;7.196;2022-11-15T08:03:02;9.80;1.00
9824;DHT22;4951;50.778;7.196;2022-11-15T08:05:51;9.90;1.00
9824;DHT22;4951;50.778;7.196;2022-11-15T08:08:39;10.00;1.00
9824;DHT22;4951;50.778;7.196;2022-11-15T08:11:25;10.00;1.00
9824;DHT22;4951;50.778;7.196;2022-11-15T08:14:10;10.10;1.00
9824;DHT22;4951;50.778;7.196;2022-11-15T08:16:56;10.30;1.00
9824;DHT22;4951;50.778;7.196;2022-11-15T08:19:41;10.40;1.00
9824;DHT22;4951;50.778;7.196;2022-11-15T08:22:27;10.60;1.00
9824;DHT22;4951;50.778;7.196;2022-11-15T08:25:15;10.80;1.00
9824;DHT22;4951;50.778;7.196;2022-11-15T08:28:03;10.90;1.00
9824;DHT22;4951;50.778;7.196;2022-11-15T08:30:49;11.00;1.00
9824;DHT22;4951;50.778;7.196;2022-11-15T08:33:35;11.10;1.00
9824;DHT22;4951;50.778;7.196;2022-11-15T08:36:21;11.20;1.00
9824;DHT22;4951;50.778;7.196;2022-11-15T08:39:10;11.20;1.00
9824;DHT22;4951;50.778;7.196;2022-11-15T08:41:57;11.20;1.00
9824;DHT22;4951;50.778;7.196;2022-11-15T08:44:43;11.30;1.00
9824;DHT22;4951;50.778;7.196;2022-11-15T08:47:29;11.30;1.00
9824;DHT22;4951;50.778;7.196;2022-11-15T08:50:15;11.40;1.00
9824;DHT22;4951;50.778;7.196;2022-11-15T08:53:05;11.40;1.00
9824;DHT22;4951;50.778;7.196;2022-11-15T08:55:53;11.50;1.00
9824;DHT22;4951;50.778;7.196;2022-11-15T08:58:40;11.60;1.00
9824;DHT22;4951;50.778;7.196;2022-11-15T09:01:26;11.70;1.00
9824;DHT22;4951;50.778;7.196;2022-11-15T09:04:12;11.80;1.00
9824;DHT22;4951;50.778;7.196;2022-11-15T09:06:58;11.90;99.90
9824;DHT22;4951;50.778;7.196;2022-11-15T09:09:45;12.00;99.90
9824;DHT22;4951;50.778;7.196;2022-11-15T09:12:30;12.10;99.90
9824;DHT22;4951;50.778;7.196;2022-11-15T09:15:17;12.10;99.90
9824;DHT22;4951;50.778;7.196;2022-11-15T09:18:03;12.20;99.90
9824;DHT22;4951;50.778;7.196;2022-11-15T09:20:49;12.30;99.90
9824;DHT22;4951;50.778;7.196;2022-11-15T09:23:35;12.30;83.30
9824;DHT22;4951;50.778;7.196;2022-11-15T09:26:21;12.30;38.20
9824;DHT22;4951;50.778;7.196;2022-11-15T09:29:07;12.40;1.00
9824;DHT22;4951;50.778;7.196;2022-11-15T09:31:54;12.50;1.00
9824;DHT22;4951;50.778;7.196;2022-11-15T09:34:40;12.50;1.00
9824;DHT22;4951;50.778;7.196;2022-11-15T09:37:26;12.60;1.00
9824;DHT22;4951;50.778;7.196;2022-11-15T09:40:13;12.70;1.00
9824;DHT22;4951;50.778;7.196;2022-11-15T09:43:29;12.70;1.00
9824;DHT22;4951;50.778;7.196;2022-11-15T09:46:21;12.80;1.00
9824;DHT22;4951;50.778;7.196;2022-11-15T09:49:14;12.90;99.90
9824;DHT22;4951;50.778;7.196;2022-11-15T09:52:07;13.00;99.90
9824;DHT22;4951;50.778;7.196;2022-11-15T09:54:37;13.10;99.90
9824;DHT22;4951;50.778;7.196;2022-11-15T09:57:09;13.10;1.00
9824;DHT22;4951;50.778;7.196;2022-11-15T09:59:51;13.10;1.00
9824;DHT22;4951;50.778;7.196;2022-11-15T10:02:42;13.20;1.00
9824;DHT22;4951;50.778;7.196;2022-11-15T10:05:16;13.20;1.00
9824;DHT22;4951;50.778;7.196;2022-11-15T10:07:50;13.30;1.00
9824;DHT22;4951;50.778;7.196;2022-11-15T10:10:25;13.30;99.90
9824;DHT22;4951;50.778;7.196;2022-11-15T10:12:54;13.30;1.00
9824;DHT22;4951;50.778;7.196;2022-11-15T10:15:21;13.30;1.00
9824;DHT22;4951;50.778;7.196;2022-11-15T10:18:08;13.40;1.00
9824;DHT22;4951;50.778;7.196;2022-11-15T10:20:47;13.40;99.90
9824;DHT22;4951;50.778;7.196;2022-11-15T10:23:16;13.50;99.90
9824;DHT22;4951;50.778;7.196;2022-11-15T10:25:44;13.50;1.00
9824;DHT22;4951;50.778;7.196;2022-11-15T10:28:15;13.60;1.00
9824;DHT22;4951;50.778;7.196;2022-11-15T10:30:44;13.60;1.00
9824;DHT22;4951;50.778;7.196;2022-11-15T10:33:30;13.70;1.00
9824;DHT22;4951;50.778;7.196;2022-11-15T10:36:19;13.70;99.90
9824;DHT22;4951;50.778;7.196;2022-11-15T10:38:55;13.80;99.90
9824;DHT22;4951;50.778;7.196;2022-11-15T10:41:30;13.90;1.00
9824;DHT22;4951;50.778;7.196;2022-11-15T10:44:27;13.90;1.00
9824;DHT22;4951;50.778;7.196;2022-11-15T10:50:02;13.90;99.90
9824;DHT22;4951;50.778;7.196;2022-11-15T10:52:33;14.00;99.90
9824;DHT22;4951;50.778;7.196;2022-11-15T10:55:05;14.10;1.00
9824;DHT22;4951;50.778;7.196;2022-11-15T10:57:36;14.10;99.90
9824;DHT22;4951;50.778;7.196;2022-11-15T11:00:12;14.20;99.90
9824;DHT22;4951;50.778;7.196;2022-11-15T11:02:57;14.20;99.90
9824;DHT22;4951;50.778;7.196;2022-11-15T11:05:27;14.20;57.80
9824;DHT22;4951;50.778;7.196;2022-11-15T11:07:58;14.20;28.40
9824;DHT22;4951;50.778;7.196;2022-11-15T11:10:28;14.30;99.90
9824;DHT22;4951;50.778;7.196;2022-11-15T11:12:55;14.40;1.00
9824;DHT22;4951;50.778;7.196;2022-11-15T11:15:25;14.40;1.00
9824;DHT22;4951;50.778;7.196;2022-11-15T11:18:00;14.50;1.00
9824;DHT22;4951;50.778;7.196;2022-11-15T11:20:36;14.60;1.00
9824;DHT22;4951;50.778;7.196;2022-11-15T11:23:21;14.60;99.90
9824;DHT22;4951;50.778;7.196;2022-11-15T11:25:58;14.60;1.00
9824;DHT22;4951;50.778;7.196;2022-11-15T11:28:41;14.50;1.00
9824;DHT22;4951;50.778;7.196;2022-11-15T11:31:20;14.50;99.90
9824;DHT22;4951;50.778;7.196;2022-11-15T11:33:59;14.40;1.00
9824;DHT22;4951;50.778;7.196;2022-11-15T11:36:35;14.40;1.00
9824;DHT22;4951;50.778;7.196;2022-11-15T11:39:21;14.40;1.00
9824;DHT22;4951;50.778;7.196;2022-11-15T11:41:57;14.20;1.00
9824;DHT22;4951;50.778;7.196;2022-11-15T11:44:47;14.20;1.00
9824;DHT22;4951;50.778;7.196;2022-11-15T11:47:22;14.40;1.00
9824;DHT22;4951;50.778;7.196;2022-11-15T11:49:51;14.70;1.00
9824;DHT22;4951;50.778;7.196;2022-11-15T11:52:24;15.00;1.00
9824;DHT22;4951;50.778;7.196;2022-11-15T11:55:01;15.20;1.00
9824;DHT22;4951;50.778;7.196;2022-11-15T11:57:38;15.30;34.90
9824;DHT22;4951;50.778;7.196;2022-11-15T12:00:15;15.40;99.90
9824;DHT22;4951;50.778;7.196;2022-11-15T12:02:49;15.40;99.90
9824;DHT22;4951;50.778;7.196;2022-11-15T12:05:22;15.30;1.00
9824;DHT22;4951;50.778;7.196;2022-11-15T12:07:56;15.40;1.00
9824;DHT22;4951;50.778;7.196;2022-11-15T12:10:29;15.50;99.90
9824;DHT22;4951;50.778;7.196;2022-11-15T12:13:00;15.50;99.90
9824;DHT22;4951;50.778;7.196;2022-11-15T12:15:35;15.40;1.00
9824;DHT22;4951;50.778;7.196;2022-11-15T12:18:03;15.30;99.90
9824;DHT22;4951;50.778;7.196;2022-11-15T12:20:36;15.20;1.00
9824;DHT22;4951;50.778;7.196;2022-11-15T12:23:07;15.20;1.00
9824;DHT22;4951;50.778;7.196;2022-11-15T12:25:43;15.10;1.00
9824;DHT22;4951;50.778;7.196;2022-11-15T12:28:16;15.20;1.00
9824;DHT22;4951;50.778;7.196;2022-11-15T12:30:49;15.30;20.70
9824;DHT22;4951;50.778;7.196;2022-11-15T12:33:32;15.40;1.00
9824;DHT22;4951;50.778;7.196;2022-11-15T12:36:02;15.40;1.60
9824;DHT22;4951;50.778;7.196;2022-11-15T12:38:56;15.40;99.90
9824;DHT22;4951;50.778;7.196;2022-11-15T12:41:25;15.40;1.00
9824;DHT22;4951;50.778;7.196;2022-11-15T12:43:53;15.40;1.00
9824;DHT22;4951;50.778;7.196;2022-11-15T12:46:59;15.30;1.00
9824;DHT22;4951;50.778;7.196;2022-11-15T12:49:45;15.20;92.60
9824;DHT22;4951;50.778;7.196;2022-11-15T12:52:12;15.10;1.00
9824;DHT22;4951;50.778;7.196;2022-11-15T12:55:00;15.10;1.00
9824;DHT22;4951;50.778;7.196;2022-11-15T12:57:38;15.10;1.00
9824;DHT22;4951;50.778;7.196;2022-11-15T13:03:28;15.10;99.90
9824;DHT22;4951;50.778;7.196;2022-11-15T13:06:07;15.10;71.70
9824;DHT22;4951;50.778;7.196;2022-11-15T13:08:47;15.10;86.10
9824;DHT22;4951;50.778;7.196;2022-11-15T13:11:43;15.10;99.90
9824;DHT22;4951;50.778;7.196;2022-11-15T13:14:49;15.10;99.90
9824;DHT22;4951;50.778;7.196;2022-11-15T13:17:34;15.20;99.90
9824;DHT22;4951;50.778;7.196;2022-11-15T13:20:25;15.40;1.00
9824;DHT22;4951;50.778;7.196;2022-11-15T13:23:00;15.70;1.00
9824;DHT22;4951;50.778;7.196;2022-11-15T13:25:52;15.90;1.00
9824;DHT22;4951;50.778;7.196;2022-11-15T13:28:29;15.90;99.90
9824;DHT22;4951;50.778;7.196;2022-11-15T13:31:00;15.90;69.40
9824;DHT22;4951;50.778;7.196;2022-11-15T13:33:32;15.80;1.00
9824;DHT22;4951;50.778;7.196;2022-11-15T13:36:02;15.70;7.40
9824;DHT22;4951;50.778;7.196;2022-11-15T13:38:32;15.60;1.00
9824;DHT22;4951;50.778;7.196;2022-11-15T13:41:10;15.50;1.00
9824;DHT22;4951;50.778;7.196;2022-11-15T13:43:38;15.30;1.00
9824;DHT22;4951;50.778;7.196;2022-11-15T13:46:12;15.30;99.90
9824;DHT22;4951;50.778;7.196;2022-11-15T13:48:40;15.20;98.10
9824;DHT22;4951;50.778;7.196;2022-11-15T13:51:17;15.10;99.90
9824;DHT22;4951;50.778;7.196;2022-11-15T13:53:47;15.10;99.90
9824;DHT22;4951;50.778;7.196;2022-11-15T13:56:18;15.00;99.90
9824;DHT22;4951;50.778;7.196;2022-11-15T13:58:46;14.90;99.90
9824;DHT22;4951;50.778;7.196;2022-11-15T14:01:17;14.80;1.00
9824;DHT22;4951;50.778;7.196;2022-11-15T14:03:52;14.70;1.00
9824;DHT22;4951;50.778;7.196;2022-11-15T14:06:21;14.70;1.00
9824;DHT22;4951;50.778;7.196;2022-11-15T14:09:24;14.60;1.00
9824;DHT22;4951;50.778;7.196;2022-11-15T14:11:52;14.60;1.00
9824;DHT22;4951;50.778;7.196;2022-11-15T14:14:21;14.50;99.90
9824;DHT22;4951;50.778;7.196;2022-11-15T14:16:51;14.60;99.90
9824;DHT22;4951;50.778;7.196;2022-11-15T14:19:37;14.60;1.00
9824;DHT22;4951;50.778;7.196;2022-11-15T14:22:17;14.70;1.00
9824;DHT22;4951;50.778;7.196;2022-11-15T14:25:03;14.70;59.70
9824;DHT22;4951;50.778;7.196;2022-11-15T14:27:33;14.70;1.00
9824;DHT22;4951;50.778;7.196;2022-11-15T14:30:02;14.70;1.00
9824;DHT22;4951;50.778;7.196;2022-11-15T14:32:45;14.70;1.00
9824;DHT22;4951;50.778;7.196;2022-11-15T14:35:15;14.60;1.00
9824;DHT22;4951;50.778;7.196;2022-11-15T14:37:42;14.60;1.00
9824;DHT22;4951;50.778;7.196;2022-11-15T14:40:13;14.60;1.00
9824;DHT22;4951;50.778;7.196;2022-11-15T14:42:41;14.50;1.00
9824;DHT22;4951;50.778;7.196;2022-11-15T14:45:13;14.50;2.70
9824;DHT22;4951;50.778;7.196;2022-11-15T14:47:42;14.50;99.90
9824;DHT22;4951;50.778;7.196;2022-11-15T14:50:12;14.40;99.90
9824;DHT22;4951;50.778;7.196;2022-11-15T14:52:39;14.40;1.00
9824;DHT22;4951;50.778;7.196;2022-11-15T14:55:16;14.30;1.00
9824;DHT22;4951;50.778;7.196;2022-11-15T14:57:45;14.30;1.00
9824;DHT22;4951;50.778;7.196;2022-11-15T15:00:13;14.30;1.00
9824;DHT22;4951;50.778;7.196;2022-11-15T15:02:43;14.30;1.00
9824;DHT22;4951;50.778;7.196;2022-11-15T15:05:15;14.20;99.90
9824;DHT22;4951;50.778;7.196;2022-11-15T15:07:42;14.20;99.90
9824;DHT22;4951;50.778;7.196;2022-11-15T15:10:10;14.20;1.00
9824;DHT22;4951;50.778;7.196;2022-11-15T15:12:38;14.20;1.00
9824;DHT22;4951;50.778;7.196;2022-11-15T15:15:09;14.10;1.00
9824;DHT22;4951;50.778;7.196;2022-11-15T15:17:38;14.10;1.00
9824;DHT22;4951;50.778;7.196;2022-11-15T15:20:07;14.00;99.90
9824;DHT22;4951;50.778;7.196;2022-11-15T15:22:34;14.00;99.90
9824;DHT22;4951;50.778;7.196;2022-11-15T15:25:02;14.00;1.00
9824;DHT22;4951;50.778;7.196;2022-11-15T15:27:30;13.90;1.00
9824;DHT22;4951;50.778;7.196;2022-11-15T15:29:57;13.90;1.00
9824;DHT22;4951;50.778;7.196;2022-11-15T15:32:24;13.90;1.00
9824;DHT22;4951;50.778;7.196;2022-11-15T15:34:51;13.90;1.00
9824;DHT22;4951;50.778;7.196;2022-11-15T15:37:24;13.80;21.60
9824;DHT22;4951;50.778;7.196;2022-11-15T15:39:52;13.80;99.90
9824;DHT22;4951;50.778;7.196;2022-11-15T15:42:20;13.80;99.90
9824;DHT22;4951;50.778;7.196;2022-11-15T15:44:47;13.70;99.90
9824;DHT22;4951;50.778;7.196;2022-11-15T15:47:16;13.60;1.00
9824;DHT22;4951;50.778;7.196;2022-11-15T15:49:45;13.60;1.00
9824;DHT22;4951;50.778;7.196;2022-11-15T15:52:13;13.50;99.90
9824;DHT22;4951;50.778;7.196;2022-11-15T15:54:41;13.50;1.00
9824;DHT22;4951;50.778;7.196;2022-11-15T15:57:11;13.50;1.00
9824;DHT22;4951;50.778;7.196;2022-11-15T15:59:39;13.50;1.00
9824;DHT22;4951;50.778;7.196;2022-11-15T16:02:06;13.40;1.00
9824;DHT22;4951;50.778;7.196;2022-11-15T16:04:33;13.30;1.00
9824;DHT22;4951;50.778;7.196;2022-11-15T16:07:00;13.30;99.90
9824;DHT22;4951;50.778;7.196;2022-11-15T16:09:29;13.30;1.00
9824;DHT22;4951;50.778;7.196;2022-11-15T16:12:15;13.30;1.00
9824;DHT22;4951;50.778;7.196;2022-11-15T16:14:43;13.30;1.00
9824;DHT22;4951;50.778;7.196;2022-11-15T16:17:16;13.30;1.00
9824;DHT22;4951;50.778;7.196;2022-11-15T16:19:44;13.30;1.00
9824;DHT22;4951;50.778;7.196;2022-11-15T16:22:11;13.30;1.00
9824;DHT22;4951;50.778;7.196;2022-11-15T16:24:38;13.30;99.90
9824;DHT22;4951;50.778;7.196;2022-11-15T16:27:05;13.30;99.90
9824;DHT22;4951;50.778;7.196;2022-11-15T16:29:33;13.30;99.90
9824;DHT22;4951;50.778;7.196;2022-11-15T16:32:00;13.30;99.90
9824;DHT22;4951;50.778;7.196;2022-11-15T16:34:27;13.30;99.90
9824;DHT22;4951;50.778;7.196;2022-11-15T16:36:55;13.30;99.90
9824;DHT22;4951;50.778;7.196;2022-11-15T16:39:22;13.30;99.90
9824;DHT22;4951;50.778;7.196;2022-11-15T16:41:49;13.30;99.90
9824;DHT22;4951;50.778;7.196;2022-11-15T16:44:17;13.30;1.00
9824;DHT22;4951;50.778;7.196;2022-11-15T16:46:45;13.30;1.00
9824;DHT22;4951;50.778;7.196;2022-11-15T16:49:17;13.30;99.90
9824;DHT22;4951;50.778;7.196;2022-11-15T16:51:45;13.30;1.00
9824;DHT22;4951;50.778;7.196;2022-11-15T16:54:12;13.30;1.00
9824;DHT22;4951;50.778;7.196;2022-11-15T16:56:40;13.40;1.00
9824;DHT22;4951;50.778;7.196;2022-11-15T16:59:13;13.30;1.00
9824;DHT22;4951;50.778;7.196;2022-11-15T17:01:42;13.30;1.00
9824;DHT22;4951;50.778;7.196;2022-11-15T17:04:17;13.30;1.00
9824;DHT22;4951;50.778;7.196;2022-11-15T17:06:46;13.30;1.00
9824;DHT22;4951;50.778;7.196;2022-11-15T17:09:14;13.30;1.00
9824;DHT22;4951;50.778;7.196;2022-11-15T17:11:43;13.40;51.40
9824;DHT22;4951;50.778;7.196;2022-11-15T17:14:11;13.40;75.70
9824;DHT22;4951;50.778;7.196;2022-11-15T17:16:38;13.40;99.90
9824;DHT22;4951;50.778;7.196;2022-11-15T17:19:11;13.30;99.90
9824;DHT22;4951;50.778;7.196;2022-11-15T17:21:41;13.40;99.90
9824;DHT22;4951;50.778;7.196;2022-11-15T17:24:09;13.30;99.90
9824;DHT22;4951;50.778;7.196;2022-11-15T17:26:37;13.40;1.00
9824;DHT22;4951;50.778;7.196;2022-11-15T17:29:04;13.40;1.00
9824;DHT22;4951;50.778;7.196;2022-11-15T17:31:33;13.30;1.00
9824;DHT22;4951;50.778;7.196;2022-11-15T17:34:01;13.40;1.00
9824;DHT22;4951;50.778;7.196;2022-11-15T17:36:29;13.30;1.00
9824;DHT22;4951;50.778;7.196;2022-11-15T17:38:58;13.30;1.00
9824;DHT22;4951;50.778;7.196;2022-11-15T17:41:25;13.30;1.00
9824;DHT22;4951;50.778;7.196;2022-11-15T17:43:52;13.30;1.00
9824;DHT22;4951;50.778;7.196;2022-11-15T17:46:20;13.30;1.00
9824;DHT22;4951;50.778;7.196;2022-11-15T17:48:47;13.30;1.00
9824;DHT22;4951;50.778;7.196;2022-11-15T17:51:16;13.20;1.00
9824;DHT22;4951;50.778;7.196;2022-11-15T17:53:45;13.20;76.70
9824;DHT22;4951;50.778;7.196;2022-11-15T17:56:16;13.20;99.90
9824;DHT22;4951;50.778;7.196;2022-11-15T17:58:47;13.10;99.90